Flight Track Log - Related Links

Times and Time Zones

All times are in EDT time to prevent confusion due to time zone crossing. See the AAY809 flight status page for this flight to view local times or setup timezone preferences in your user account.

Time Position Orientation Groundspeed Altitude Reporting Facility
EDT Latitude Longitude Course Direction KTS MPH feet Rate Location/Type
Sat 07:46:14 PM 41.5800 -83.7692 177° South 195 224 36,000  Level Cleveland Center
Sat 07:47:15 PM 41.5197 -83.7650 177° South 252 290 5,900 -13,180 Descending Cleveland Center
Sat 07:48:16 PM 41.4433 -83.7819 189° South 274 315 9,200 3,344 Climbing Cleveland Center
Sat 07:49:17 PM 41.3611 -83.8014 190° South 295 339 12,700 2,410 Climbing Cleveland Center
Sat 07:50:18 PM 41.2661 -83.8231 190° South 356 410 14,100 1,967 Climbing Cleveland Center
Sat 07:51:19 PM 41.1536 -83.8481 189° South 404 465 16,700 3,000 Climbing Cleveland Center
Sat 07:52:20 PM 41.0167 -83.8789 190° South 425 489 20,200 2,951 Climbing Cleveland Center
Sat 07:53:21 PM 40.8950 -83.9047 189° South 436 502 22,700 2,213 Climbing Cleveland Center
Sat 07:54:22 PM 40.7800 -83.9306 190° South 450 518 24,700 1,869 Climbing Cleveland Center
Sat 07:55:23 PM 40.6508 -83.9586 189° South 467 537 26,500 2,066 Climbing Cleveland Center
Sat 07:56:24 PM 40.5192 -83.9889 190° South 478 550 28,900 2,557 Climbing Cleveland Center
Sat 07:57:25 PM 40.3656 -84.0222 189° South 472 543 31,700 2,361 Climbing Cleveland Center
Sat 07:58:26 PM 40.2431 -84.0503 190° South 455 524 33,700 1,452 Climbing Cleveland Center
Sat 07:59:29 PM 40.1172 -84.0686 186° South 454 522 34,700 629 Climbing Cleveland Center
Sat 08:00:30 PM 39.9908 -84.0914 188° South 460 529 35,000 148 Climbing Cleveland Center
Sat 08:01:31 PM 39.8656 -84.1119 187° South 460 529 35,000  Level Cleveland Center
Sat 08:02:32 PM 39.7397 -84.1328 187° South 460 529 35,000  Level Cleveland Center
Sat 08:03:54 PM 39.5647 -84.1603 187° South 459 528 35,000  Level Indianapolis Center
Sat 08:04:56 PM 39.4406 -84.1733 185° South 456 525 35,000  Level Indianapolis Center
Sat 08:05:56 PM 39.3114 -84.1617 176° South 463 533 35,000  Level Indianapolis Center
Sat 08:06:57 PM 39.1542 -84.1475 176° South 470 541 35,000  Level Indianapolis Center
Sat 08:07:58 PM 39.0236 -84.1361 176° South 470 541 35,000  Level Indianapolis Center
Sat 08:08:59 PM 38.8917 -84.1250 176° South 472 543 35,000  Level Indianapolis Center
Sat 08:10:00 PM 38.7606 -84.1158 177° South 472 543 35,000  Level Indianapolis Center
Sat 08:11:01 PM 38.6231 -84.1053 177° South 472 543 35,000  Level Indianapolis Center
Sat 08:12:02 PM 38.4914 -84.0969 177° South 472 543 35,000  Level Indianapolis Center
Sat 08:13:03 PM 38.3606 -84.0858 176° South 472 543 35,000  Level Indianapolis Center
Sat 08:14:04 PM 38.2308 -84.0750 176° South 471 542 35,000  Level Indianapolis Center
Sat 08:15:05 PM 38.0983 -84.0647 177° South 472 543 35,000  Level Indianapolis Center
Sat 08:16:06 PM 37.9653 -84.0553 177° South 475 547 35,000  Level Indianapolis Center
Sat 08:17:07 PM 37.8336 -84.0436 176° South 475 547 35,000  Level Indianapolis Center
Sat 08:18:07 PM 37.7017 -84.0342 177° South 475 547 35,000  Level Indianapolis Center
Sat 08:19:08 PM 37.5697 -84.0219 176° South 475 547 35,000  Level Indianapolis Center
Sat 08:20:09 PM 37.4375 -84.0128 177° South 475 547 35,000  Level Indianapolis Center
Sat 08:21:10 PM 37.2833 -83.9997 176° South 475 547 35,000  Level Indianapolis Center
Sat 08:22:11 PM 37.1519 -83.9903 177° South 475 547 35,000  Level Indianapolis Center
Sat 08:23:12 PM 37.0208 -83.9808 177° South 475 547 35,000  Level Indianapolis Center
Sat 08:24:13 PM 36.8897 -83.9697 176° South 474 545 35,000  Level Indianapolis Center
Sat 08:25:14 PM 36.7581 -83.9592 176° South 474 545 35,000  Level Indianapolis Center
Sat 08:26:15 PM 36.6264 -83.9500 177° South 474 545 35,000  Level Indianapolis Center
Sat 08:27:16 PM 36.5011 -83.9394 176° South 474 545 35,000  Level Indianapolis Center
Sat 08:28:16 PM 36.3703 -83.9411 181° South 473 544 35,000  Level Indianapolis Center
Sat 08:29:17 PM 36.2467 -83.9683 190° South 458 527 35,000  Level Indianapolis Center
Sat 08:30:17 PM 36.1189 -83.9950 190° South 458 527 35,000  Level Atlanta Center
Sat 08:31:17 PM 35.9936 -84.0183 189° South 458 527 35,000  Level Atlanta Center
Sat 08:32:17 PM 35.8683 -84.0414 188° South 458 527 35,000  Level Atlanta Center
Sat 08:33:17 PM 35.7433 -84.0644 189° South 463 533 35,000  Level Atlanta Center
Sat 08:34:17 PM 35.6203 -84.0847 188° South 463 533 35,000  Level Atlanta Center
Sat 08:35:17 PM 35.4931 -84.1103 189° South 463 533 35,000  Level Atlanta Center
Sat 08:36:17 PM 35.3697 -84.1306 188° South 463 533 35,000  Level Atlanta Center
Sat 08:37:17 PM 35.2322 -84.1531 188° South 463 533 35,000  Level Atlanta Center
Sat 08:38:17 PM 35.1089 -84.1783 190° South 463 533 35,000  Level Atlanta Center
Sat 08:39:17 PM 34.9858 -84.1958 187° South 463 533 35,000  Level Atlanta Center
Sat 08:40:17 PM 34.8772 -84.2133 188° South 451 519 35,000  Level Atlanta Center
Sat 08:41:17 PM 34.7436 -84.2386 189° South 451 519 35,000  Level Atlanta Center
Sat 08:42:17 PM 34.6206 -84.2583 188° South 445 512 35,000  Level Atlanta Center
Sat 08:43:17 PM 34.4953 -84.2808 188° South 450 518 35,000  Level Atlanta Center
Sat 08:44:17 PM 34.3742 -84.3031 189° South 450 518 35,000  Level Atlanta Center
Sat 08:45:17 PM 34.2531 -84.3228 188° South 444 511 35,000  Level Atlanta Center
Sat 08:46:17 PM 34.1342 -84.3450 189° South 444 511 35,000  Level Atlanta Center
Sat 08:47:17 PM 34.0214 -84.3672 189° South 450 518 35,000  Level Atlanta Center
Sat 08:48:17 PM 33.8961 -84.3892 188° South 443 510 35,000  Level Atlanta Center
Sat 08:49:17 PM 33.7811 -84.4086 188° South 448 516 35,000  Level Atlanta Center
Sat 08:50:17 PM 33.6581 -84.4281 187° South 448 516 35,000  Level Atlanta Center
Sat 08:51:17 PM 33.5203 -84.4350 182° South 448 516 35,000  Level Atlanta Center
Sat 08:52:17 PM 33.3969 -84.4319 179° South 443 510 35,000  Level Atlanta Center
Sat 08:53:17 PM 33.2717 -84.4314 180° South 449 517 35,000  Level Atlanta Center
Sat 08:54:17 PM 33.1444 -84.4283 179° South 454 522 35,000  Level Atlanta Center
Sat 08:55:17 PM 33.0192 -84.4253 179° South 454 522 35,000  Level Atlanta Center
Sat 08:56:17 PM 32.8961 -84.4247 180° South 454 522 35,000  Level Atlanta Center
Sat 08:57:17 PM 32.7731 -84.4192 178° South 454 522 35,000  Level Atlanta Center
Sat 08:58:17 PM 32.6456 -84.4114 177° South 454 522 35,000  Level Atlanta Center
Sat 08:59:17 PM 32.5225 -84.3789 167° South 454 522 35,000  Level Atlanta Center
Sat 09:00:59 PM 32.3233 -84.3208 166° South 461 531 35,000  Level Jacksonville Center
Sat 09:01:58 PM 32.1986 -84.2869 167° South 466 536 35,000  Level Jacksonville Center
Sat 09:02:58 PM 32.0756 -84.2558 168° South 466 536 35,000  Level Jacksonville Center
Sat 09:03:58 PM 31.9528 -84.2222 167° South 466 536 35,000  Level Jacksonville Center
Sat 09:04:58 PM 31.8281 -84.1886 167° South 466 536 35,000  Level Jacksonville Center
Sat 09:05:58 PM 31.7050 -84.1575 168° South 466 536 35,000  Level Jacksonville Center
Sat 09:06:58 PM 31.5803 -84.1217 166° South 466 536 35,000  Level Jacksonville Center
Sat 09:07:59 PM 31.4572 -84.0908 168° South 466 536 35,000  Level Jacksonville Center
Sat 09:08:58 PM 31.3344 -84.0578 167° South 466 536 35,000  Level Jacksonville Center
Sat 09:09:59 PM 31.2094 -84.0244 167° South 461 531 35,000  Level Jacksonville Center
Sat 09:10:58 PM 31.0864 -83.9914 167° South 461 531 35,000  Level Jacksonville Center
Sat 09:11:58 PM 30.9614 -83.9586 167° South 461 531 35,000  Level Jacksonville Center
Sat 09:12:58 PM 30.8406 -83.9281 168° South 461 531 35,000  Level Jacksonville Center
Sat 09:13:59 PM 30.7178 -83.8953 167° South 455 524 35,000  Level Jacksonville Center
Sat 09:14:58 PM 30.5947 -83.8603 166° South 455 524 35,000  Level Jacksonville Center
Sat 09:15:59 PM 30.4614 -83.8275 168° South 444 511 35,000 -50 Level Jacksonville Center
Sat 09:16:59 PM 30.3428 -83.7953 167° South 444 511 34,900 -50 Descending Jacksonville Center
Sat 09:17:58 PM 30.2197 -83.7653 168° South 450 518 34,900 50 Level Jacksonville Center
Sat 09:18:59 PM 30.0947 -83.7353 168° South 450 518 35,000  Climbing Jacksonville Center
Sat 09:19:59 PM 29.9717 -83.7006 166° South 450 518 34,900  Descending Jacksonville Center
Sat 09:20:59 PM 29.8508 -83.6708 168° South 450 518 35,000  Climbing Jacksonville Center
Sat 09:21:59 PM 29.7383 -83.6411 167° South 450 518 34,900 -100 Descending Jacksonville Center
Sat 09:22:59 PM 29.6153 -83.6117 168° South 455 524 34,800 -1,350 Descending Jacksonville Center
Sat 09:23:59 PM 29.4922 -83.5797 167° South 455 524 32,200 -2,471 Descending Jacksonville Center
Sat 09:24:58 PM 29.3692 -83.5478 167° South 450 518 29,900 -2,350 Descending Jacksonville Center
Sat 09:25:59 PM 29.2525 -83.5161 167° South 445 512 27,500 -1,636 Descending Jacksonville Center
Sat 09:26:59 PM 29.1442 -83.4608 156° South 432 497 26,600 -1,400 Descending Jacksonville Center
Sat 09:27:59 PM 29.0381 -83.3914 150° Southeast 430 495 24,700 -2,000 Descending Jacksonville Center
Sat 09:28:59 PM 28.9339 -83.3267 151° Southeast 430 495 22,600 -2,000 Descending Jacksonville Center
Sat 09:29:59 PM 28.8339 -83.2622 151° Southeast 422 486 20,700 -1,991 Descending Jacksonville Center
Sat 09:32:30 PM 28.5833 -83.1000 150° Southeast 401 461 15,600 -2,101 Descending Tampa TRACON
Sat 09:33:36 PM 28.4833 -83.0333 150° Southeast 380 437 13,100 -1,762 Descending Tampa TRACON
Sat 09:34:36 PM 28.3833 -82.9833 156° South 346 398 11,900 -1,300 Descending Tampa TRACON
Sat 09:35:36 PM 28.3000 -82.9667 170° South 301 346 10,500 -1,488 Descending Tampa TRACON
Sat 09:36:37 PM 28.2333 -82.9167 147° Southeast 302 348 8,900 -1,636 Descending Tampa TRACON
Sat 09:37:37 PM 28.1667 -82.8833 156° South 287 330 7,200 -1,650 Descending Tampa TRACON
Sat 09:38:37 PM 28.0833 -82.8500 161° South 273 314 5,600 -1,429 Descending Tampa TRACON
Sat 09:39:43 PM 28.0167 -82.8167 156° South 251 289 4,200 -1,095 Descending Tampa TRACON
Sat 09:40:43 PM 27.9500 -82.8000 168° South 198 228 3,300 -1,105 Descending Tampa TRACON
Sat 09:41:37 PM 27.9000 -82.7833 164° South 196 226 2,100 -684 Descending Tampa TRACON
Sat 09:42:37 PM 27.8500 -82.7500 149° Southeast 202 232 2,000 -53 Descending Tampa TRACON
Sat 09:43:31 PM 27.8167 -82.7500 180° South 156 180 2,000 -263 Level Tampa TRACON
Sat 09:44:31 PM 27.8000 -82.7000 111° Southeast 173 199 1,500 -300 Descending Tampa TRACON
Sat 09:45:31 PM 27.8167 -82.6667 61° Northeast 161 185 1,400 -333 Descending Tampa TRACON
Sat 09:46:37 PM 27.8667 -82.6833 344° North 121 139 800 -545 Descending Tampa TRACON

Login

Don't have an account? Register now (free) for customized features, flight alerts, and more!